Sargodha Weather



Sargodha's Current Weather

Temprature 17.22o clear sky

clear sky

Rain: 0 %

Min Temprature17.22o
Max Temprature17.22o
Humidity28
Wind Speed1.3 m/h
Sun Rise06:22:45
Sun Set17:23:14
Current Time: 28-Oct-2020 07:11:31
Lat/Lon: 32.08, 72.67




Sargodha's Geo Location



Sargodha's Weather Forecast

Time Overall Temp Min Temp Max Temp Humidity Wind Speed Rain
28-Oct-2020 (Wed)
08:00:00 clear sky 19.260 19.260 21.060 24 1.45 m/h 0 %
11:00:00 clear sky 27.460 27.460 30.190 16 1.64 m/h 0 %
14:00:00 clear sky 32.040 32.040 33.030 12 1.72 m/h 0 %
17:00:00 clear sky 27.660 27.660 27.740 15 0.49 m/h 0 %
20:00:00 clear sky 22.300 22.300 22.300 21 2.03 m/h 0 %
23:00:00 clear sky 20.440 20.440 20.440 23 3.2 m/h 0 %
29-Oct-2020 (Thu)
02:00:00 clear sky 18.130 18.130 18.130 26 2.89 m/h 0 %
05:00:00 clear sky 16.350 16.350 16.350 29 2.96 m/h 0 %
08:00:00 clear sky 19.700 19.700 19.700 24 2.84 m/h 0 %
11:00:00 clear sky 28.440 28.440 28.440 14 2.49 m/h 0 %
14:00:00 clear sky 32.460 32.460 32.460 11 1.59 m/h 0 %
17:00:00 clear sky 27.700 27.700 27.700 15 1.9 m/h 0 %
20:00:00 clear sky 22.210 22.210 22.210 21 2.45 m/h 0 %
23:00:00 clear sky 20.170 20.170 20.170 24 1.98 m/h 0 %
30-Oct-2020 (Fri)
02:00:00 clear sky 18.930 18.930 18.930 26 2.11 m/h 0 %
05:00:00 clear sky 17.490 17.490 17.490 29 1.68 m/h 0 %
08:00:00 clear sky 21.410 21.410 21.410 22 0.88 m/h 0 %
11:00:00 clear sky 30.490 30.490 30.490 13 3.25 m/h 0 %
14:00:00 clear sky 33.140 33.140 33.140 10 3.31 m/h 0 %
17:00:00 clear sky 28.160 28.160 28.160 14 3.2 m/h 0 %
20:00:00 clear sky 22.220 22.220 22.220 20 2.79 m/h 0 %
23:00:00 clear sky 20.320 20.320 20.320 22 1.91 m/h 0 %
31-Oct-2020 (Sat)
02:00:00 clear sky 18.800 18.800 18.800 24 1.62 m/h 0 %
05:00:00 clear sky 18.190 18.190 18.190 24 1.5 m/h 0 %
08:00:00 clear sky 22.470 22.470 22.470 19 0.63 m/h 0 %
11:00:00 clear sky 31.650 31.650 31.650 11 1.69 m/h 0 %
14:00:00 clear sky 33.540 33.540 33.540 9 3.68 m/h 0 %
17:00:00 clear sky 27.780 27.780 27.780 13 2.66 m/h 0 %
20:00:00 clear sky 20.580 20.580 20.580 19 1.57 m/h 0 %
23:00:00 clear sky 18.260 18.260 18.260 21 0.46 m/h 0 %
01-Nov-2020 (Sun)
02:00:00 clear sky 17.960 17.960 17.960 22 1.15 m/h 0 %
05:00:00 clear sky 17.440 17.440 17.440 22 1.36 m/h 0 %
08:00:00 clear sky 21.950 21.950 21.950 18 1.04 m/h 0 %
11:00:00 clear sky 30.590 30.590 30.590 11 2.08 m/h 0 %
14:00:00 clear sky 33.180 33.180 33.180 9 3.61 m/h 0 %
17:00:00 clear sky 27.580 27.580 27.580 13 2.3 m/h 0 %
20:00:00 clear sky 21.210 21.210 21.210 19 1.29 m/h 0 %
23:00:00 clear sky 19.510 19.510 19.510 20 0.4 m/h 0 %
02-Nov-2020 (Mon)
02:00:00 clear sky 18.420 18.420 18.420 21 0.58 m/h 0 %
05:00:00 clear sky 16.690 16.690 16.690 24 0.54 m/h 0 %

Famous Cities (60)